sensor_id;sensor_type;location;lat;lon;timestamp;temperature;humidity
65044;DHT22;51617;48.158;16.464;2023-02-11T00:01:35;4.00;70.70
65044;DHT22;51617;48.158;16.464;2023-02-11T00:04:01;4.00;70.70
65044;DHT22;51617;48.158;16.464;2023-02-11T00:06:29;4.00;70.70
65044;DHT22;51617;48.158;16.464;2023-02-11T00:08:55;3.90;70.80
65044;DHT22;51617;48.158;16.464;2023-02-11T00:11:22;3.90;70.90
65044;DHT22;51617;48.158;16.464;2023-02-11T00:13:50;3.90;71.10
65044;DHT22;51617;48.158;16.464;2023-02-11T00:16:18;3.80;71.20
65044;DHT22;51617;48.158;16.464;2023-02-11T00:18:44;3.80;71.30
65044;DHT22;51617;48.158;16.464;2023-02-11T00:21:16;3.80;71.40
65044;DHT22;51617;48.158;16.464;2023-02-11T00:23:43;3.70;71.50
65044;DHT22;51617;48.158;16.464;2023-02-11T00:26:16;3.60;71.60
65044;DHT22;51617;48.158;16.464;2023-02-11T00:28:43;3.60;71.70
65044;DHT22;51617;48.158;16.464;2023-02-11T00:31:09;3.50;71.90
65044;DHT22;51617;48.158;16.464;2023-02-11T00:33:35;3.50;72.10
65044;DHT22;51617;48.158;16.464;2023-02-11T00:36:05;3.60;72.30
65044;DHT22;51617;48.158;16.464;2023-02-11T00:38:31;3.50;72.20
65044;DHT22;51617;48.158;16.464;2023-02-11T00:40:57;3.50;72.10
65044;DHT22;51617;48.158;16.464;2023-02-11T00:43:23;3.50;72.20
65044;DHT22;51617;48.158;16.464;2023-02-11T00:45:49;3.50;72.30
65044;DHT22;51617;48.158;16.464;2023-02-11T00:48:14;3.50;72.30
65044;DHT22;51617;48.158;16.464;2023-02-11T00:50:40;3.50;72.20
65044;DHT22;51617;48.158;16.464;2023-02-11T00:53:06;3.60;72.30
65044;DHT22;51617;48.158;16.464;2023-02-11T00:55:32;3.50;72.40
65044;DHT22;51617;48.158;16.464;2023-02-11T00:57:58;3.50;72.70
65044;DHT22;51617;48.158;16.464;2023-02-11T01:00:25;3.50;72.70
65044;DHT22;51617;48.158;16.464;2023-02-11T01:02:51;3.50;72.90
65044;DHT22;51617;48.158;16.464;2023-02-11T01:05:17;3.50;72.90
65044;DHT22;51617;48.158;16.464;2023-02-11T01:07:42;3.60;72.90
65044;DHT22;51617;48.158;16.464;2023-02-11T01:10:08;3.60;72.90
65044;DHT22;51617;48.158;16.464;2023-02-11T01:12:34;3.50;73.00
65044;DHT22;51617;48.158;16.464;2023-02-11T01:15:00;3.60;73.10
65044;DHT22;51617;48.158;16.464;2023-02-11T01:17:26;3.60;73.20
65044;DHT22;51617;48.158;16.464;2023-02-11T01:19:52;3.60;73.40
65044;DHT22;51617;48.158;16.464;2023-02-11T01:22:18;3.60;73.60
65044;DHT22;51617;48.158;16.464;2023-02-11T01:24:44;3.60;73.50
65044;DHT22;51617;48.158;16.464;2023-02-11T01:27:09;3.60;73.80
65044;DHT22;51617;48.158;16.464;2023-02-11T01:29:35;3.60;73.60
65044;DHT22;51617;48.158;16.464;2023-02-11T01:32:01;3.60;73.50
65044;DHT22;51617;48.158;16.464;2023-02-11T01:34:27;3.30;73.90
65044;DHT22;51617;48.158;16.464;2023-02-11T01:36:57;3.10;74.40
65044;DHT22;51617;48.158;16.464;2023-02-11T01:39:23;3.00;75.10
65044;DHT22;51617;48.158;16.464;2023-02-11T01:41:49;3.00;75.40
65044;DHT22;51617;48.158;16.464;2023-02-11T01:44:30;3.00;75.40
65044;DHT22;51617;48.158;16.464;2023-02-11T01:46:56;3.10;75.60
65044;DHT22;51617;48.158;16.464;2023-02-11T01:49:28;3.20;75.40
65044;DHT22;51617;48.158;16.464;2023-02-11T01:52:01;3.30;75.20
65044;DHT22;51617;48.158;16.464;2023-02-11T01:54:32;3.30;74.90
65044;DHT22;51617;48.158;16.464;2023-02-11T01:57:21;3.40;74.90
65044;DHT22;51617;48.158;16.464;2023-02-11T02:05:18;3.30;74.70
65044;DHT22;51617;48.158;16.464;2023-02-11T02:10:26;3.10;75.30
65044;DHT22;51617;48.158;16.464;2023-02-11T02:12:53;3.00;75.60
65044;DHT22;51617;48.158;16.464;2023-02-11T02:15:26;2.80;76.10
65044;DHT22;51617;48.158;16.464;2023-02-11T02:24:30;2.50;77.20
65044;DHT22;51617;48.158;16.464;2023-02-11T02:38:46;2.50;80.00
65044;DHT22;51617;48.158;16.464;2023-02-11T02:41:16;2.70;79.80
65044;DHT22;51617;48.158;16.464;2023-02-11T02:43:48;2.80;79.20
65044;DHT22;51617;48.158;16.464;2023-02-11T02:48:42;2.90;79.60
65044;DHT22;51617;48.158;16.464;2023-02-11T03:02:29;2.80;80.20
65044;DHT22;51617;48.158;16.464;2023-02-11T03:08:10;2.80;81.20
65044;DHT22;51617;48.158;16.464;2023-02-11T03:10:40;2.90;80.80
65044;DHT22;51617;48.158;16.464;2023-02-11T03:13:08;3.00;80.50
65044;DHT22;51617;48.158;16.464;2023-02-11T03:15:37;3.00;80.20
65044;DHT22;51617;48.158;16.464;2023-02-11T03:18:07;3.00;80.10
65044;DHT22;51617;48.158;16.464;2023-02-11T03:20:36;3.10;80.20
65044;DHT22;51617;48.158;16.464;2023-02-11T03:23:28;3.20;80.20
65044;DHT22;51617;48.158;16.464;2023-02-11T03:26:03;3.00;79.80
65044;DHT22;51617;48.158;16.464;2023-02-11T03:28:31;2.80;80.20
65044;DHT22;51617;48.158;16.464;2023-02-11T03:31:33;2.60;80.60
65044;DHT22;51617;48.158;16.464;2023-02-11T03:39:06;2.20;81.80
65044;DHT22;51617;48.158;16.464;2023-02-11T03:41:34;2.20;81.80
65044;DHT22;51617;48.158;16.464;2023-02-11T03:44:01;2.10;81.80
65044;DHT22;51617;48.158;16.464;2023-02-11T03:46:33;2.10;81.80
65044;DHT22;51617;48.158;16.464;2023-02-11T03:49:08;2.00;81.80
65044;DHT22;51617;48.158;16.464;2023-02-11T03:51:37;2.00;82.00
65044;DHT22;51617;48.158;16.464;2023-02-11T03:54:08;1.90;82.00
65044;DHT22;51617;48.158;16.464;2023-02-11T03:56:40;1.90;82.30
65044;DHT22;51617;48.158;16.464;2023-02-11T03:59:08;1.90;82.30
65044;DHT22;51617;48.158;16.464;2023-02-11T04:01:34;1.90;82.50
65044;DHT22;51617;48.158;16.464;2023-02-11T04:03:59;1.90;82.60
65044;DHT22;51617;48.158;16.464;2023-02-11T04:06:25;1.90;82.70
65044;DHT22;51617;48.158;16.464;2023-02-11T04:08:51;1.80;82.60
65044;DHT22;51617;48.158;16.464;2023-02-11T04:11:16;1.80;83.00
65044;DHT22;51617;48.158;16.464;2023-02-11T04:13:42;1.70;83.00
65044;DHT22;51617;48.158;16.464;2023-02-11T04:16:08;1.70;83.20
65044;DHT22;51617;48.158;16.464;2023-02-11T04:18:33;1.50;83.20
65044;DHT22;51617;48.158;16.464;2023-02-11T04:20:59;1.50;83.90
65044;DHT22;51617;48.158;16.464;2023-02-11T04:23:25;1.40;84.00
65044;DHT22;51617;48.158;16.464;2023-02-11T04:25:50;1.50;85.00
65044;DHT22;51617;48.158;16.464;2023-02-11T04:28:16;1.50;84.60
65044;DHT22;51617;48.158;16.464;2023-02-11T04:30:42;1.50;84.70
65044;DHT22;51617;48.158;16.464;2023-02-11T04:33:07;1.50;84.70
65044;DHT22;51617;48.158;16.464;2023-02-11T04:35:33;1.50;84.90
65044;DHT22;51617;48.158;16.464;2023-02-11T04:37:59;1.40;84.70
65044;DHT22;51617;48.158;16.464;2023-02-11T04:40:24;1.30;85.40
65044;DHT22;51617;48.158;16.464;2023-02-11T04:42:50;1.40;86.10
65044;DHT22;51617;48.158;16.464;2023-02-11T04:45:16;1.50;89.60
65044;DHT22;51617;48.158;16.464;2023-02-11T04:47:41;1.80;88.90
65044;DHT22;51617;48.158;16.464;2023-02-11T04:50:07;2.00;89.10
65044;DHT22;51617;48.158;16.464;2023-02-11T04:52:33;2.30;89.20
65044;DHT22;51617;48.158;16.464;2023-02-11T04:54:59;2.50;87.80
65044;DHT22;51617;48.158;16.464;2023-02-11T04:57:24;2.60;86.80
65044;DHT22;51617;48.158;16.464;2023-02-11T04:59:50;2.60;85.60
65044;DHT22;51617;48.158;16.464;2023-02-11T05:02:16;2.40;85.10
65044;DHT22;51617;48.158;16.464;2023-02-11T05:04:41;2.30;85.90
65044;DHT22;51617;48.158;16.464;2023-02-11T05:07:07;2.20;87.40
65044;DHT22;51617;48.158;16.464;2023-02-11T05:09:33;2.40;87.20
65044;DHT22;51617;48.158;16.464;2023-02-11T05:11:58;2.40;87.10
65044;DHT22;51617;48.158;16.464;2023-02-11T05:14:24;2.50;87.90
65044;DHT22;51617;48.158;16.464;2023-02-11T05:16:49;2.70;88.10
65044;DHT22;51617;48.158;16.464;2023-02-11T05:19:15;3.00;87.50
65044;DHT22;51617;48.158;16.464;2023-02-11T05:21:41;3.20;87.00
65044;DHT22;51617;48.158;16.464;2023-02-11T05:24:07;3.30;86.20
65044;DHT22;51617;48.158;16.464;2023-02-11T05:26:32;3.50;85.80
65044;DHT22;51617;48.158;16.464;2023-02-11T05:28:58;3.60;85.10
65044;DHT22;51617;48.158;16.464;2023-02-11T05:31:24;3.70;84.80
65044;DHT22;51617;48.158;16.464;2023-02-11T05:33:49;3.80;84.50
65044;DHT22;51617;48.158;16.464;2023-02-11T05:36:15;3.80;84.20
65044;DHT22;51617;48.158;16.464;2023-02-11T05:38:41;3.90;84.00
65044;DHT22;51617;48.158;16.464;2023-02-11T05:41:08;4.00;83.80
65044;DHT22;51617;48.158;16.464;2023-02-11T05:43:34;4.10;83.70
65044;DHT22;51617;48.158;16.464;2023-02-11T05:46:02;4.10;83.20
65044;DHT22;51617;48.158;16.464;2023-02-11T05:48:28;4.20;83.10
65044;DHT22;51617;48.158;16.464;2023-02-11T05:50:53;4.20;82.50
65044;DHT22;51617;48.158;16.464;2023-02-11T05:53:19;4.20;82.10
65044;DHT22;51617;48.158;16.464;2023-02-11T05:55:45;4.30;82.10
65044;DHT22;51617;48.158;16.464;2023-02-11T05:58:10;4.30;81.60
65044;DHT22;51617;48.158;16.464;2023-02-11T06:00:37;4.20;81.50
65044;DHT22;51617;48.158;16.464;2023-02-11T06:03:03;4.10;81.50
65044;DHT22;51617;48.158;16.464;2023-02-11T06:05:29;4.20;81.60
65044;DHT22;51617;48.158;16.464;2023-02-11T06:07:55;4.20;82.00
65044;DHT22;51617;48.158;16.464;2023-02-11T06:10:20;4.10;81.60
65044;DHT22;51617;48.158;16.464;2023-02-11T06:12:46;4.20;81.40
65044;DHT22;51617;48.158;16.464;2023-02-11T06:15:12;4.10;81.20
65044;DHT22;51617;48.158;16.464;2023-02-11T06:17:37;4.10;81.40
65044;DHT22;51617;48.158;16.464;2023-02-11T06:20:06;4.10;81.30
65044;DHT22;51617;48.158;16.464;2023-02-11T06:22:32;4.20;81.10
65044;DHT22;51617;48.158;16.464;2023-02-11T06:24:58;4.20;81.00
65044;DHT22;51617;48.158;16.464;2023-02-11T06:27:24;4.10;80.90
65044;DHT22;51617;48.158;16.464;2023-02-11T06:29:50;4.10;80.90
65044;DHT22;51617;48.158;16.464;2023-02-11T06:32:17;4.10;81.10
65044;DHT22;51617;48.158;16.464;2023-02-11T06:34:43;4.00;81.10
65044;DHT22;51617;48.158;16.464;2023-02-11T06:37:09;3.90;81.10
65044;DHT22;51617;48.158;16.464;2023-02-11T06:39:35;3.80;81.00
65044;DHT22;51617;48.158;16.464;2023-02-11T06:42:01;3.70;81.10
65044;DHT22;51617;48.158;16.464;2023-02-11T06:44:26;3.70;81.20
65044;DHT22;51617;48.158;16.464;2023-02-11T06:46:52;3.60;81.30
65044;DHT22;51617;48.158;16.464;2023-02-11T06:49:18;3.60;81.30
65044;DHT22;51617;48.158;16.464;2023-02-11T06:51:43;3.60;81.30
65044;DHT22;51617;48.158;16.464;2023-02-11T06:54:10;3.60;81.40
65044;DHT22;51617;48.158;16.464;2023-02-11T06:56:39;3.50;81.30
65044;DHT22;51617;48.158;16.464;2023-02-11T06:59:05;3.50;81.50
65044;DHT22;51617;48.158;16.464;2023-02-11T07:01:30;3.60;81.40
65044;DHT22;51617;48.158;16.464;2023-02-11T07:03:56;3.70;81.10
65044;DHT22;51617;48.158;16.464;2023-02-11T07:06:24;3.60;81.20
65044;DHT22;51617;48.158;16.464;2023-02-11T07:08:53;3.70;80.80
65044;DHT22;51617;48.158;16.464;2023-02-11T07:11:23;3.70;80.50
65044;DHT22;51617;48.158;16.464;2023-02-11T07:13:51;3.60;80.40
65044;DHT22;51617;48.158;16.464;2023-02-11T07:16:17;3.70;80.30
65044;DHT22;51617;48.158;16.464;2023-02-11T07:18:44;3.60;79.80
65044;DHT22;51617;48.158;16.464;2023-02-11T07:21:13;3.60;80.00
65044;DHT22;51617;48.158;16.464;2023-02-11T07:23:39;3.60;80.50
65044;DHT22;51617;48.158;16.464;2023-02-11T07:26:11;3.80;81.20
65044;DHT22;51617;48.158;16.464;2023-02-11T07:28:38;3.90;79.70
65044;DHT22;51617;48.158;16.464;2023-02-11T07:31:12;3.80;79.70
65044;DHT22;51617;48.158;16.464;2023-02-11T07:33:38;4.00;81.50
65044;DHT22;51617;48.158;16.464;2023-02-11T07:36:05;4.10;79.70
65044;DHT22;51617;48.158;16.464;2023-02-11T07:38:32;4.10;79.00
65044;DHT22;51617;48.158;16.464;2023-02-11T07:40:59;4.10;79.10
65044;DHT22;51617;48.158;16.464;2023-02-11T07:43:26;4.00;78.80
65044;DHT22;51617;48.158;16.464;2023-02-11T07:45:51;3.90;79.30
65044;DHT22;51617;48.158;16.464;2023-02-11T07:48:17;3.80;79.30
65044;DHT22;51617;48.158;16.464;2023-02-11T07:50:43;3.80;79.60
65044;DHT22;51617;48.158;16.464;2023-02-11T07:53:08;3.80;79.30
65044;DHT22;51617;48.158;16.464;2023-02-11T07:55:34;3.80;79.20
65044;DHT22;51617;48.158;16.464;2023-02-11T07:58:00;3.90;79.60
65044;DHT22;51617;48.158;16.464;2023-02-11T08:00:26;4.00;79.50
65044;DHT22;51617;48.158;16.464;2023-02-11T08:02:51;4.00;79.60
65044;DHT22;51617;48.158;16.464;2023-02-11T08:05:17;4.10;79.50
65044;DHT22;51617;48.158;16.464;2023-02-11T08:07:43;4.10;79.10
65044;DHT22;51617;48.158;16.464;2023-02-11T08:10:08;4.20;79.20
65044;DHT22;51617;48.158;16.464;2023-02-11T08:12:34;4.30;79.00
65044;DHT22;51617;48.158;16.464;2023-02-11T08:15:00;4.40;78.90
65044;DHT22;51617;48.158;16.464;2023-02-11T08:17:25;4.50;78.70
65044;DHT22;51617;48.158;16.464;2023-02-11T08:19:51;4.50;78.50
65044;DHT22;51617;48.158;16.464;2023-02-11T08:22:17;4.60;78.30
65044;DHT22;51617;48.158;16.464;2023-02-11T08:24:43;4.80;78.00
65044;DHT22;51617;48.158;16.464;2023-02-11T08:27:09;4.90;77.60
65044;DHT22;51617;48.158;16.464;2023-02-11T08:29:34;5.10;77.40
65044;DHT22;51617;48.158;16.464;2023-02-11T08:32:00;5.20;77.00
65044;DHT22;51617;48.158;16.464;2023-02-11T08:34:27;5.30;76.60
65044;DHT22;51617;48.158;16.464;2023-02-11T08:36:52;5.30;76.20
65044;DHT22;51617;48.158;16.464;2023-02-11T08:39:20;5.30;76.10
65044;DHT22;51617;48.158;16.464;2023-02-11T08:41:47;5.30;75.90
65044;DHT22;51617;48.158;16.464;2023-02-11T08:44:13;5.20;76.50
65044;DHT22;51617;48.158;16.464;2023-02-11T08:46:39;5.20;76.20
65044;DHT22;51617;48.158;16.464;2023-02-11T08:49:05;5.30;76.50
65044;DHT22;51617;48.158;16.464;2023-02-11T08:51:31;5.20;76.80
65044;DHT22;51617;48.158;16.464;2023-02-11T08:53:57;5.30;76.30
65044;DHT22;51617;48.158;16.464;2023-02-11T08:56:24;5.40;76.40
65044;DHT22;51617;48.158;16.464;2023-02-11T08:58:51;5.60;76.10
65044;DHT22;51617;48.158;16.464;2023-02-11T09:01:26;5.80;75.80
65044;DHT22;51617;48.158;16.464;2023-02-11T09:03:52;5.80;75.80
65044;DHT22;51617;48.158;16.464;2023-02-11T09:06:18;5.90;76.40
65044;DHT22;51617;48.158;16.464;2023-02-11T09:08:46;6.10;76.20
65044;DHT22;51617;48.158;16.464;2023-02-11T09:11:14;6.30;74.70
65044;DHT22;51617;48.158;16.464;2023-02-11T09:13:41;6.40;74.00
65044;DHT22;51617;48.158;16.464;2023-02-11T09:16:10;6.60;73.30
65044;DHT22;51617;48.158;16.464;2023-02-11T09:18:39;6.80;72.80
65044;DHT22;51617;48.158;16.464;2023-02-11T09:21:07;7.00;72.40
65044;DHT22;51617;48.158;16.464;2023-02-11T09:23:33;7.20;71.60
65044;DHT22;51617;48.158;16.464;2023-02-11T09:26:07;7.40;70.20
65044;DHT22;51617;48.158;16.464;2023-02-11T09:28:33;7.50;68.00
65044;DHT22;51617;48.158;16.464;2023-02-11T09:31:03;7.60;66.10
65044;DHT22;51617;48.158;16.464;2023-02-11T09:33:30;7.80;66.00
65044;DHT22;51617;48.158;16.464;2023-02-11T09:36:00;7.90;65.50
65044;DHT22;51617;48.158;16.464;2023-02-11T09:38:26;8.10;65.40
65044;DHT22;51617;48.158;16.464;2023-02-11T09:40:52;8.10;64.90
65044;DHT22;51617;48.158;16.464;2023-02-11T09:43:45;8.20;64.70
65044;DHT22;51617;48.158;16.464;2023-02-11T09:46:14;8.20;64.60
65044;DHT22;51617;48.158;16.464;2023-02-11T09:48:42;8.10;64.70
65044;DHT22;51617;48.158;16.464;2023-02-11T09:53:59;8.10;64.80
65044;DHT22;51617;48.158;16.464;2023-02-11T09:56:28;8.10;64.70
65044;DHT22;51617;48.158;16.464;2023-02-11T09:58:53;8.10;64.70
65044;DHT22;51617;48.158;16.464;2023-02-11T10:01:27;8.20;65.30
65044;DHT22;51617;48.158;16.464;2023-02-11T10:14:26;8.50;64.90
65044;DHT22;51617;48.158;16.464;2023-02-11T10:19:30;8.50;64.20
65044;DHT22;51617;48.158;16.464;2023-02-11T10:24:33;8.60;63.40
65044;DHT22;51617;48.158;16.464;2023-02-11T10:27:01;8.50;63.60
65044;DHT22;51617;48.158;16.464;2023-02-11T10:29:34;8.60;63.80
65044;DHT22;51617;48.158;16.464;2023-02-11T10:32:04;8.80;63.30
65044;DHT22;51617;48.158;16.464;2023-02-11T10:34:31;8.70;62.70
65044;DHT22;51617;48.158;16.464;2023-02-11T10:36:57;8.80;63.00
65044;DHT22;51617;48.158;16.464;2023-02-11T10:39:25;8.80;62.40
65044;DHT22;51617;48.158;16.464;2023-02-11T10:42:01;8.80;62.30
65044;DHT22;51617;48.158;16.464;2023-02-11T10:44:56;8.90;61.90
65044;DHT22;51617;48.158;16.464;2023-02-11T10:47:25;8.80;61.00
65044;DHT22;51617;48.158;16.464;2023-02-11T10:49:52;8.80;61.50
65044;DHT22;51617;48.158;16.464;2023-02-11T10:52:26;8.90;60.60
65044;DHT22;51617;48.158;16.464;2023-02-11T10:57:37;8.90;60.20
65044;DHT22;51617;48.158;16.464;2023-02-11T11:03:24;9.00;59.50
65044;DHT22;51617;48.158;16.464;2023-02-11T11:05:57;9.10;59.60
65044;DHT22;51617;48.158;16.464;2023-02-11T11:08:48;9.20;59.30
65044;DHT22;51617;48.158;16.464;2023-02-11T11:11:22;9.30;59.10
65044;DHT22;51617;48.158;16.464;2023-02-11T11:14:00;9.40;58.40
65044;DHT22;51617;48.158;16.464;2023-02-11T11:16:28;9.40;58.70
65044;DHT22;51617;48.158;16.464;2023-02-11T11:23:59;9.40;58.30
65044;DHT22;51617;48.158;16.464;2023-02-11T11:26:50;9.50;58.10
65044;DHT22;51617;48.158;16.464;2023-02-11T11:29:33;9.30;57.60
65044;DHT22;51617;48.158;16.464;2023-02-11T11:32:02;9.30;57.90
65044;DHT22;51617;48.158;16.464;2023-02-11T11:34:37;9.20;57.70
65044;DHT22;51617;48.158;16.464;2023-02-11T11:37:25;9.30;57.50
65044;DHT22;51617;48.158;16.464;2023-02-11T11:42:31;9.30;57.50
65044;DHT22;51617;48.158;16.464;2023-02-11T11:45:42;9.40;58.00
65044;DHT22;51617;48.158;16.464;2023-02-11T11:47:53;9.50;57.40
65044;DHT22;51617;48.158;16.464;2023-02-11T11:50:44;9.40;57.20
65044;DHT22;51617;48.158;16.464;2023-02-11T11:56:04;9.50;57.60
65044;DHT22;51617;48.158;16.464;2023-02-11T11:58:32;9.60;58.00
65044;DHT22;51617;48.158;16.464;2023-02-11T12:04:29;9.50;56.50
65044;DHT22;51617;48.158;16.464;2023-02-11T12:07:10;9.50;56.40
65044;DHT22;51617;48.158;16.464;2023-02-11T12:23:04;9.80;61.30
65044;DHT22;51617;48.158;16.464;2023-02-11T12:30:53;9.60;58.30
65044;DHT22;51617;48.158;16.464;2023-02-11T12:33:25;9.70;59.40
65044;DHT22;51617;48.158;16.464;2023-02-11T12:35:56;9.60;59.70
65044;DHT22;51617;48.158;16.464;2023-02-11T12:41:24;9.30;58.90
65044;DHT22;51617;48.158;16.464;2023-02-11T12:44:28;9.30;59.40
65044;DHT22;51617;48.158;16.464;2023-02-11T12:47:29;9.20;59.10
65044;DHT22;51617;48.158;16.464;2023-02-11T12:52:42;9.10;58.50
65044;DHT22;51617;48.158;16.464;2023-02-11T12:55:22;9.20;57.90
65044;DHT22;51617;48.158;16.464;2023-02-11T12:57:49;9.20;58.10
65044;DHT22;51617;48.158;16.464;2023-02-11T13:00:22;9.20;57.10
65044;DHT22;51617;48.158;16.464;2023-02-11T13:05:56;9.10;56.60
65044;DHT22;51617;48.158;16.464;2023-02-11T13:11:27;9.10;56.20
65044;DHT22;51617;48.158;16.464;2023-02-11T13:14:01;9.10;55.60
65044;DHT22;51617;48.158;16.464;2023-02-11T13:16:37;9.20;55.60
65044;DHT22;51617;48.158;16.464;2023-02-11T13:21:45;9.10;55.30
65044;DHT22;51617;48.158;16.464;2023-02-11T13:32:22;9.20;55.90
65044;DHT22;51617;48.158;16.464;2023-02-11T13:41:18;9.20;57.20
65044;DHT22;51617;48.158;16.464;2023-02-11T13:43:23;9.20;57.80
65044;DHT22;51617;48.158;16.464;2023-02-11T13:45:52;9.20;57.70
65044;DHT22;51617;48.158;16.464;2023-02-11T13:48:24;9.20;58.20
65044;DHT22;51617;48.158;16.464;2023-02-11T13:50:54;9.10;58.30
65044;DHT22;51617;48.158;16.464;2023-02-11T13:53:22;9.00;58.40
65044;DHT22;51617;48.158;16.464;2023-02-11T13:55:50;9.00;58.90
65044;DHT22;51617;48.158;16.464;2023-02-11T14:00:55;9.00;58.50
65044;DHT22;51617;48.158;16.464;2023-02-11T14:03:34;9.10;58.60
65044;DHT22;51617;48.158;16.464;2023-02-11T14:06:27;9.10;58.40
65044;DHT22;51617;48.158;16.464;2023-02-11T14:12:32;9.00;58.90
65044;DHT22;51617;48.158;16.464;2023-02-11T14:15:17;9.00;59.20
65044;DHT22;51617;48.158;16.464;2023-02-11T14:17:43;9.00;59.10
65044;DHT22;51617;48.158;16.464;2023-02-11T14:20:35;8.90;59.40
65044;DHT22;51617;48.158;16.464;2023-02-11T14:23:01;8.80;59.30
65044;DHT22;51617;48.158;16.464;2023-02-11T14:25:29;8.90;59.70
65044;DHT22;51617;48.158;16.464;2023-02-11T14:28:11;8.90;59.50
65044;DHT22;51617;48.158;16.464;2023-02-11T14:31:01;8.90;59.60
65044;DHT22;51617;48.158;16.464;2023-02-11T14:41:50;9.00;59.50
65044;DHT22;51617;48.158;16.464;2023-02-11T14:44:26;9.00;59.70
65044;DHT22;51617;48.158;16.464;2023-02-11T14:46:53;9.10;59.60
65044;DHT22;51617;48.158;16.464;2023-02-11T14:49:37;9.10;60.00
65044;DHT22;51617;48.158;16.464;2023-02-11T14:52:27;9.10;59.80
65044;DHT22;51617;48.158;16.464;2023-02-11T14:55:17;9.10;60.30
65044;DHT22;51617;48.158;16.464;2023-02-11T14:58:23;9.10;60.10
65044;DHT22;51617;48.158;16.464;2023-02-11T15:01:00;9.00;60.60
65044;DHT22;51617;48.158;16.464;2023-02-11T15:03:33;8.90;61.20
65044;DHT22;51617;48.158;16.464;2023-02-11T15:06:44;8.80;61.80
65044;DHT22;51617;48.158;16.464;2023-02-11T15:08:57;9.00;61.90
65044;DHT22;51617;48.158;16.464;2023-02-11T15:11:33;8.90;62.60
65044;DHT22;51617;48.158;16.464;2023-02-11T15:16:53;8.60;63.70
65044;DHT22;51617;48.158;16.464;2023-02-11T15:19:23;8.60;64.40
65044;DHT22;51617;48.158;16.464;2023-02-11T15:21:50;8.60;64.80
65044;DHT22;51617;48.158;16.464;2023-02-11T15:24:31;8.50;65.00
65044;DHT22;51617;48.158;16.464;2023-02-11T15:27:02;8.40;65.80
65044;DHT22;51617;48.158;16.464;2023-02-11T15:29:41;8.50;66.20
65044;DHT22;51617;48.158;16.464;2023-02-11T15:32:14;8.40;66.60
65044;DHT22;51617;48.158;16.464;2023-02-11T15:34:44;8.40;67.20
65044;DHT22;51617;48.158;16.464;2023-02-11T15:37:27;8.30;67.50
65044;DHT22;51617;48.158;16.464;2023-02-11T15:39:54;8.30;67.70
65044;DHT22;51617;48.158;16.464;2023-02-11T15:42:34;8.20;67.90
65044;DHT22;51617;48.158;16.464;2023-02-11T15:47:49;8.30;68.20
65044;DHT22;51617;48.158;16.464;2023-02-11T15:50:33;8.30;68.80
65044;DHT22;51617;48.158;16.464;2023-02-11T15:55:47;8.20;69.30
65044;DHT22;51617;48.158;16.464;2023-02-11T15:58:14;8.30;69.60
65044;DHT22;51617;48.158;16.464;2023-02-11T16:00:48;8.30;69.90
65044;DHT22;51617;48.158;16.464;2023-02-11T16:03:24;8.20;70.30
65044;DHT22;51617;48.158;16.464;2023-02-11T16:05:52;8.10;70.80
65044;DHT22;51617;48.158;16.464;2023-02-11T16:08:27;8.10;71.10
65044;DHT22;51617;48.158;16.464;2023-02-11T16:10:56;8.10;71.30
65044;DHT22;51617;48.158;16.464;2023-02-11T16:13:25;8.20;71.20
65044;DHT22;51617;48.158;16.464;2023-02-11T16:16:01;8.20;71.30
65044;DHT22;51617;48.158;16.464;2023-02-11T16:20:55;8.10;72.30
65044;DHT22;51617;48.158;16.464;2023-02-11T16:23:32;8.10;72.60
65044;DHT22;51617;48.158;16.464;2023-02-11T16:26:03;8.10;72.80
65044;DHT22;51617;48.158;16.464;2023-02-11T16:28:37;8.10;73.20
65044;DHT22;51617;48.158;16.464;2023-02-11T16:31:05;8.10;73.40
65044;DHT22;51617;48.158;16.464;2023-02-11T16:33:31;8.20;73.30
65044;DHT22;51617;48.158;16.464;2023-02-11T16:35:57;8.20;73.40
65044;DHT22;51617;48.158;16.464;2023-02-11T16:38:27;8.20;73.20
65044;DHT22;51617;48.158;16.464;2023-02-11T16:40:53;8.20;73.20
65044;DHT22;51617;48.158;16.464;2023-02-11T16:43:19;8.30;73.30
65044;DHT22;51617;48.158;16.464;2023-02-11T16:45:45;8.30;74.10
65044;DHT22;51617;48.158;16.464;2023-02-11T16:48:16;8.20;73.60
65044;DHT22;51617;48.158;16.464;2023-02-11T16:50:46;8.20;73.90
65044;DHT22;51617;48.158;16.464;2023-02-11T16:53:22;8.20;74.30
65044;DHT22;51617;48.158;16.464;2023-02-11T16:55:50;8.10;74.80
65044;DHT22;51617;48.158;16.464;2023-02-11T16:58:17;8.10;75.10
65044;DHT22;51617;48.158;16.464;2023-02-11T17:00:44;8.00;75.80
65044;DHT22;51617;48.158;16.464;2023-02-11T17:03:20;8.00;76.10
65044;DHT22;51617;48.158;16.464;2023-02-11T17:05:47;8.00;76.50
65044;DHT22;51617;48.158;16.464;2023-02-11T17:08:14;7.90;76.80
65044;DHT22;51617;48.158;16.464;2023-02-11T17:10:40;7.90;77.10
65044;DHT22;51617;48.158;16.464;2023-02-11T17:13:06;7.90;77.40
65044;DHT22;51617;48.158;16.464;2023-02-11T17:15:33;7.90;77.50
65044;DHT22;51617;48.158;16.464;2023-02-11T17:17:59;7.90;77.60
65044;DHT22;51617;48.158;16.464;2023-02-11T17:20:26;8.00;77.50
65044;DHT22;51617;48.158;16.464;2023-02-11T17:22:52;8.00;77.70
65044;DHT22;51617;48.158;16.464;2023-02-11T17:25:18;7.90;78.00
65044;DHT22;51617;48.158;16.464;2023-02-11T17:27:44;8.00;78.10
65044;DHT22;51617;48.158;16.464;2023-02-11T17:30:11;8.00;77.90
65044;DHT22;51617;48.158;16.464;2023-02-11T17:32:37;8.00;77.70
65044;DHT22;51617;48.158;16.464;2023-02-11T17:35:04;7.90;77.90
65044;DHT22;51617;48.158;16.464;2023-02-11T17:37:31;7.90;77.90
65044;DHT22;51617;48.158;16.464;2023-02-11T17:39:57;8.00;78.10
65044;DHT22;51617;48.158;16.464;2023-02-11T17:42:23;8.00;77.60
65044;DHT22;51617;48.158;16.464;2023-02-11T17:44:49;8.00;77.70
65044;DHT22;51617;48.158;16.464;2023-02-11T17:47:15;8.00;77.60
65044;DHT22;51617;48.158;16.464;2023-02-11T17:49:42;8.00;77.20
65044;DHT22;51617;48.158;16.464;2023-02-11T17:52:09;8.00;77.00
65044;DHT22;51617;48.158;16.464;2023-02-11T17:54:37;8.00;77.20
65044;DHT22;51617;48.158;16.464;2023-02-11T17:57:03;8.00;76.90
65044;DHT22;51617;48.158;16.464;2023-02-11T17:59:29;8.00;76.70
65044;DHT22;51617;48.158;16.464;2023-02-11T18:02:03;8.00;76.70
65044;DHT22;51617;48.158;16.464;2023-02-11T18:04:30;8.00;76.10
65044;DHT22;51617;48.158;16.464;2023-02-11T18:06:56;8.00;76.20
65044;DHT22;51617;48.158;16.464;2023-02-11T18:09:24;8.00;76.10
65044;DHT22;51617;48.158;16.464;2023-02-11T18:11:51;8.00;76.10
65044;DHT22;51617;48.158;16.464;2023-02-11T18:14:19;7.90;76.10
65044;DHT22;51617;48.158;16.464;2023-02-11T18:16:49;8.00;76.10
65044;DHT22;51617;48.158;16.464;2023-02-11T18:19:15;8.00;76.80
65044;DHT22;51617;48.158;16.464;2023-02-11T18:21:41;8.00;76.20
65044;DHT22;51617;48.158;16.464;2023-02-11T18:24:08;8.10;76.00